San Francisco, CA

8:26 AM PDT on March 23, 2017 (GMT -0700)
Financial District | | Change Station

Elev 100 ft 37.79 °N, 122.40 °W | Updated 2 hours ago

Clear
Clear
--
Feels Like --
N
-
Wind Variable Wind from North

Today
High -- | Low -- °F
--% Chance of Precip.
Yesterday
High -- | Low -- °F
Precip. -- in
Pressure 30.19 in
Visibility 10.0 miles
Clouds Few 2000 ft
Few 18000 ft
Dew Point Not available.
Humidity Not available.
Rainfall 0.00 in
Snow Depth Not available.
7:07 AM 7:24 PM
Waning Crescent, 22% visible
METAR KOAK 231453Z 00000KT 10SM FEW020 FEW180 08/07 A3019 RMK AO2 SLP223 T00830067 53015
Pressure 30.19 in
Visibility 10.0 miles
Clouds Few 2000 ft
Few 18000 ft
Dew Point Not available.
Humidity Not available.
Rainfall 0.00 in
Snow Depth Not available.
7:07 AM 7:24 PM
Waning Crescent, 22% visible
METAR KOAK 231453Z 00000KT 10SM FEW020 FEW180 08/07 A3019 RMK AO2 SLP223 T00830067 53015

Get Severe Weather Alerts

Thanks for signing up!

Be on the lookout for a verification email in your inbox.

You'll start receiving the daily forecast at 8 AM.

×

10-Day Weather Forecast

Almanac

Astronomy

Mar. 23, 2017 Rise Set
Actual Time
Civil Twilight
Nautical Twilight
Astronomical Twilight
Moon
Length of Visible Light
Length of Day
Tomorrow will be .
, % of the Moon is Illuminated

Today's Extremes

State Highs State Lows

Community

WunderPhotos

Upload Photos

1,962,540 photos uploaded!

WunderBlog® & News

Nearby

Air Quality

  Air Quality AQ Index Pollutant
Not available.

Snow Depth

Station Depth Elevation

Earthquake Activity

City Distance Mag. Time & Date
Minimum magnitude displayed is 2.5.

Earthquake Activity

City Distance Mag. Time & Date
Minimum magnitude displayed is 2.5.

Coastal Water Temperatures

Place Temperature

Stations

Nearby Weather Stations

Station Location Temp. Windchill Dew Point Humidity Wind Precip. Elev Updated Type
                   

Watches & Warnings

There are currently no watches in effect.